sensor_id;sensor_type;location;lat;lon;timestamp;pressure;altitude;pressure_sealevel;temperature;humidity
48622;BME280;34421;48.944;9.460;2023-03-04T00:00:13;99072.50;;;1.91;64.51
48622;BME280;34421;48.944;9.460;2023-03-04T00:02:39;99068.75;;;1.94;64.94
48622;BME280;34421;48.944;9.460;2023-03-04T00:05:04;99074.00;;;1.94;65.10
48622;BME280;34421;48.944;9.460;2023-03-04T00:07:30;99077.19;;;1.88;64.98
48622;BME280;34421;48.944;9.460;2023-03-04T00:09:55;99069.19;;;1.79;64.96
48622;BME280;34421;48.944;9.460;2023-03-04T00:12:20;99071.94;;;1.78;65.26
48622;BME280;34421;48.944;9.460;2023-03-04T00:14:45;99069.03;;;1.81;65.13
48622;BME280;34421;48.944;9.460;2023-03-04T00:17:10;99070.84;;;1.80;64.76
48622;BME280;34421;48.944;9.460;2023-03-04T00:19:36;99068.50;;;1.77;65.07
48622;BME280;34421;48.944;9.460;2023-03-04T00:22:01;99073.91;;;1.76;64.88
48622;BME280;34421;48.944;9.460;2023-03-04T00:24:27;99071.41;;;1.74;65.07
48622;BME280;34421;48.944;9.460;2023-03-04T00:26:53;99068.22;;;1.71;65.11
48622;BME280;34421;48.944;9.460;2023-03-04T00:29:18;99072.22;;;1.65;65.33
48622;BME280;34421;48.944;9.460;2023-03-04T00:31:43;99068.63;;;1.56;65.39
48622;BME280;34421;48.944;9.460;2023-03-04T00:34:08;99072.25;;;1.55;65.50
48622;BME280;34421;48.944;9.460;2023-03-04T00:36:34;99075.97;;;1.53;65.46
48622;BME280;34421;48.944;9.460;2023-03-04T00:38:59;99079.56;;;1.52;65.46
48622;BME280;34421;48.944;9.460;2023-03-04T00:41:24;99076.91;;;1.42;65.09
48622;BME280;34421;48.944;9.460;2023-03-04T00:43:49;99066.41;;;1.42;65.26
48622;BME280;34421;48.944;9.460;2023-03-04T00:46:14;99080.50;;;1.41;65.24
48622;BME280;34421;48.944;9.460;2023-03-04T00:48:40;99077.88;;;1.41;65.03
48622;BME280;34421;48.944;9.460;2023-03-04T00:51:05;99073.47;;;1.42;65.08
48622;BME280;34421;48.944;9.460;2023-03-04T00:53:30;99077.19;;;1.39;64.91
48622;BME280;34421;48.944;9.460;2023-03-04T00:55:55;99064.63;;;1.33;64.76
48622;BME280;34421;48.944;9.460;2023-03-04T00:58:20;99064.06;;;1.29;65.52
48622;BME280;34421;48.944;9.460;2023-03-04T01:00:46;99065.88;;;1.29;65.68
48622;BME280;34421;48.944;9.460;2023-03-04T01:03:11;99064.19;;;1.28;65.56
48622;BME280;34421;48.944;9.460;2023-03-04T01:05:36;99060.91;;;1.26;65.50
48622;BME280;34421;48.944;9.460;2023-03-04T01:08:01;99056.47;;;1.17;65.38
48622;BME280;34421;48.944;9.460;2023-03-04T01:10:27;99053.41;;;1.11;65.07
48622;BME280;34421;48.944;9.460;2023-03-04T01:12:52;99054.66;;;1.07;65.28
48622;BME280;34421;48.944;9.460;2023-03-04T01:15:17;99053.25;;;1.03;65.51
48622;BME280;34421;48.944;9.460;2023-03-04T01:17:42;99053.97;;;1.05;65.72
48622;BME280;34421;48.944;9.460;2023-03-04T01:20:08;99048.00;;;1.03;65.03
48622;BME280;34421;48.944;9.460;2023-03-04T01:22:33;99049.41;;;1.07;65.40
48622;BME280;34421;48.944;9.460;2023-03-04T01:24:59;99051.06;;;1.08;65.69
48622;BME280;34421;48.944;9.460;2023-03-04T01:27:24;99045.41;;;1.13;65.35
48622;BME280;34421;48.944;9.460;2023-03-04T01:29:49;99046.22;;;1.04;64.97
48622;BME280;34421;48.944;9.460;2023-03-04T01:32:14;99050.09;;;1.00;65.31
48622;BME280;34421;48.944;9.460;2023-03-04T01:34:40;99045.94;;;0.97;65.12
48622;BME280;34421;48.944;9.460;2023-03-04T01:37:05;99054.06;;;0.94;65.06
48622;BME280;34421;48.944;9.460;2023-03-04T01:39:30;99046.91;;;0.96;65.68
48622;BME280;34421;48.944;9.460;2023-03-04T01:41:55;99043.19;;;0.99;65.45
48622;BME280;34421;48.944;9.460;2023-03-04T01:44:21;99042.09;;;1.01;65.40
48622;BME280;34421;48.944;9.460;2023-03-04T01:46:47;99045.09;;;0.97;65.47
48622;BME280;34421;48.944;9.460;2023-03-04T01:49:13;99039.59;;;0.90;65.71
48622;BME280;34421;48.944;9.460;2023-03-04T01:51:41;99044.81;;;0.90;66.00
48622;BME280;34421;48.944;9.460;2023-03-04T01:54:07;99039.69;;;0.88;65.55
48622;BME280;34421;48.944;9.460;2023-03-04T01:56:37;99041.50;;;0.88;66.01
48622;BME280;34421;48.944;9.460;2023-03-04T01:59:16;99047.56;;;0.88;65.66
48622;BME280;34421;48.944;9.460;2023-03-04T02:01:43;99045.91;;;0.87;66.41
48622;BME280;34421;48.944;9.460;2023-03-04T02:04:09;99047.16;;;0.83;65.68
48622;BME280;34421;48.944;9.460;2023-03-04T02:06:38;99050.19;;;0.79;65.61
48622;BME280;34421;48.944;9.460;2023-03-04T02:09:03;99049.34;;;0.78;65.46
48622;BME280;34421;48.944;9.460;2023-03-04T02:11:29;99045.91;;;0.78;65.80
48622;BME280;34421;48.944;9.460;2023-03-04T02:13:54;99034.84;;;0.74;65.79
48622;BME280;34421;48.944;9.460;2023-03-04T02:16:19;99042.56;;;0.76;66.05
48622;BME280;34421;48.944;9.460;2023-03-04T02:18:45;99042.03;;;0.72;65.33
48622;BME280;34421;48.944;9.460;2023-03-04T02:21:24;99041.19;;;0.72;65.62
48622;BME280;34421;48.944;9.460;2023-03-04T02:26:21;99032.91;;;0.66;65.42
48622;BME280;34421;48.944;9.460;2023-03-04T02:28:48;99036.59;;;0.64;65.45
48622;BME280;34421;48.944;9.460;2023-03-04T02:33:41;99037.25;;;0.56;65.50
48622;BME280;34421;48.944;9.460;2023-03-04T02:36:07;99037.78;;;0.50;64.67
48622;BME280;34421;48.944;9.460;2023-03-04T02:38:33;99036.94;;;0.40;65.36
48622;BME280;34421;48.944;9.460;2023-03-04T02:40:58;99034.44;;;0.38;65.89
48622;BME280;34421;48.944;9.460;2023-03-04T02:43:24;99037.47;;;0.34;66.06
48622;BME280;34421;48.944;9.460;2023-03-04T02:45:49;99036.38;;;0.36;65.35
48622;BME280;34421;48.944;9.460;2023-03-04T02:48:18;99030.31;;;0.36;65.48
48622;BME280;34421;48.944;9.460;2023-03-04T02:50:44;99039.56;;;0.40;65.54
48622;BME280;34421;48.944;9.460;2023-03-04T02:53:11;99037.06;;;0.38;64.87
48622;BME280;34421;48.944;9.460;2023-03-04T02:55:36;99044.81;;;0.40;65.93
48622;BME280;34421;48.944;9.460;2023-03-04T02:58:01;99041.34;;;0.39;66.07
48622;BME280;34421;48.944;9.460;2023-03-04T03:00:27;99048.91;;;0.33;65.64
48622;BME280;34421;48.944;9.460;2023-03-04T03:02:52;99050.81;;;0.31;65.89
48622;BME280;34421;48.944;9.460;2023-03-04T03:05:17;99043.22;;;0.28;64.81
48622;BME280;34421;48.944;9.460;2023-03-04T03:07:43;99046.53;;;0.30;64.97
48622;BME280;34421;48.944;9.460;2023-03-04T03:10:08;99045.97;;;0.26;65.56
48622;BME280;34421;48.944;9.460;2023-03-04T03:12:34;99050.63;;;0.22;65.09
48622;BME280;34421;48.944;9.460;2023-03-04T03:14:59;99044.84;;;0.19;64.98
48622;BME280;34421;48.944;9.460;2023-03-04T03:17:24;99046.63;;;0.18;65.67
48622;BME280;34421;48.944;9.460;2023-03-04T03:19:49;99042.94;;;0.21;65.39
48622;BME280;34421;48.944;9.460;2023-03-04T03:22:14;99042.06;;;0.20;65.23
48622;BME280;34421;48.944;9.460;2023-03-04T03:24:40;99046.19;;;0.13;64.56
48622;BME280;34421;48.944;9.460;2023-03-04T03:27:05;99044.09;;;0.07;65.43
48622;BME280;34421;48.944;9.460;2023-03-04T03:29:30;99035.41;;;0.07;65.73
48622;BME280;34421;48.944;9.460;2023-03-04T03:31:55;99040.91;;;0.04;64.75
48622;BME280;34421;48.944;9.460;2023-03-04T03:34:21;99042.09;;;-0.01;64.98
48622;BME280;34421;48.944;9.460;2023-03-04T03:36:46;99043.44;;;-0.06;65.15
48622;BME280;34421;48.944;9.460;2023-03-04T03:39:11;99031.31;;;-0.07;64.56
48622;BME280;34421;48.944;9.460;2023-03-04T03:41:36;99043.69;;;-0.09;65.98
48622;BME280;34421;48.944;9.460;2023-03-04T03:44:02;99034.91;;;-0.08;64.55
48622;BME280;34421;48.944;9.460;2023-03-04T03:46:27;99035.59;;;-0.06;64.37
48622;BME280;34421;48.944;9.460;2023-03-04T03:48:53;99040.78;;;-0.16;65.11
48622;BME280;34421;48.944;9.460;2023-03-04T03:51:19;99040.56;;;-0.24;64.76
48622;BME280;34421;48.944;9.460;2023-03-04T03:53:44;99033.38;;;-0.32;65.18
48622;BME280;34421;48.944;9.460;2023-03-04T03:56:09;99036.00;;;-0.32;64.54
48622;BME280;34421;48.944;9.460;2023-03-04T03:58:34;99043.97;;;-0.33;65.53
48622;BME280;34421;48.944;9.460;2023-03-04T04:00:59;99044.81;;;-0.33;65.61
48622;BME280;34421;48.944;9.460;2023-03-04T04:03:25;99042.31;;;-0.34;65.09
48622;BME280;34421;48.944;9.460;2023-03-04T04:05:50;99050.28;;;-0.36;64.85
48622;BME280;34421;48.944;9.460;2023-03-04T04:08:16;99049.84;;;-0.41;65.52
48622;BME280;34421;48.944;9.460;2023-03-04T04:10:41;99042.00;;;-0.41;64.75
48622;BME280;34421;48.944;9.460;2023-03-04T04:13:07;99052.47;;;-0.41;65.14
48622;BME280;34421;48.944;9.460;2023-03-04T04:15:32;99051.63;;;-0.41;65.58
48622;BME280;34421;48.944;9.460;2023-03-04T04:17:57;99049.59;;;-0.38;65.36
48622;BME280;34421;48.944;9.460;2023-03-04T04:20:22;99052.31;;;-0.39;64.85
48622;BME280;34421;48.944;9.460;2023-03-04T04:22:48;99047.22;;;-0.41;65.52
48622;BME280;34421;48.944;9.460;2023-03-04T04:25:13;99046.25;;;-0.40;64.46
48622;BME280;34421;48.944;9.460;2023-03-04T04:27:38;99054.09;;;-0.40;65.64
48622;BME280;34421;48.944;9.460;2023-03-04T04:30:04;99051.50;;;-0.40;64.75
48622;BME280;34421;48.944;9.460;2023-03-04T04:32:29;99054.09;;;-0.40;64.70
48622;BME280;34421;48.944;9.460;2023-03-04T04:34:54;99056.25;;;-0.45;65.79
48622;BME280;34421;48.944;9.460;2023-03-04T04:37:19;99051.88;;;-0.44;64.85
48622;BME280;34421;48.944;9.460;2023-03-04T04:39:45;99057.03;;;-0.54;64.55
48622;BME280;34421;48.944;9.460;2023-03-04T04:42:10;99051.09;;;-0.56;65.86
48622;BME280;34421;48.944;9.460;2023-03-04T04:44:35;99046.69;;;-0.56;64.84
48622;BME280;34421;48.944;9.460;2023-03-04T04:47:02;99045.97;;;-0.58;65.41
48622;BME280;34421;48.944;9.460;2023-03-04T04:49:28;99054.66;;;-0.57;65.48
48622;BME280;34421;48.944;9.460;2023-03-04T04:51:53;99052.03;;;-0.57;64.87
48622;BME280;34421;48.944;9.460;2023-03-04T04:54:18;99049.69;;;-0.60;65.50
48622;BME280;34421;48.944;9.460;2023-03-04T04:56:43;99045.53;;;-0.63;64.99
48622;BME280;34421;48.944;9.460;2023-03-04T04:59:08;99051.47;;;-0.61;64.48
48622;BME280;34421;48.944;9.460;2023-03-04T05:01:34;99059.00;;;-0.67;64.43
48622;BME280;34421;48.944;9.460;2023-03-04T05:03:59;99060.16;;;-0.72;65.34
48622;BME280;34421;48.944;9.460;2023-03-04T05:06:25;99065.41;;;-0.72;64.66
48622;BME280;34421;48.944;9.460;2023-03-04T05:08:50;99060.06;;;-0.70;64.88
48622;BME280;34421;48.944;9.460;2023-03-04T05:11:16;99060.31;;;-0.73;64.16
48622;BME280;34421;48.944;9.460;2023-03-04T05:13:43;99067.59;;;-0.77;65.72
48622;BME280;34421;48.944;9.460;2023-03-04T05:16:08;99064.25;;;-0.79;64.71
48622;BME280;34421;48.944;9.460;2023-03-04T05:18:33;99069.47;;;-0.79;65.45
48622;BME280;34421;48.944;9.460;2023-03-04T05:21:00;99073.31;;;-0.83;64.63
48622;BME280;34421;48.944;9.460;2023-03-04T05:23:27;99082.91;;;-0.83;65.55
48622;BME280;34421;48.944;9.460;2023-03-04T05:25:52;99074.00;;;-0.81;65.07
48622;BME280;34421;48.944;9.460;2023-03-04T05:28:18;99070.81;;;-0.84;65.52
48622;BME280;34421;48.944;9.460;2023-03-04T05:30:44;99074.38;;;-0.85;65.00
48622;BME280;34421;48.944;9.460;2023-03-04T05:33:09;99084.13;;;-0.87;64.88
48622;BME280;34421;48.944;9.460;2023-03-04T05:35:35;99083.06;;;-0.96;64.83
48622;BME280;34421;48.944;9.460;2023-03-04T05:38:02;99083.91;;;-0.96;65.05
48622;BME280;34421;48.944;9.460;2023-03-04T05:40:27;99078.56;;;-0.94;64.47
48622;BME280;34421;48.944;9.460;2023-03-04T05:42:52;99085.69;;;-0.96;64.23
48622;BME280;34421;48.944;9.460;2023-03-04T05:45:17;99089.97;;;-0.95;64.05
48622;BME280;34421;48.944;9.460;2023-03-04T05:47:43;99086.97;;;-0.90;64.02
48622;BME280;34421;48.944;9.460;2023-03-04T05:50:08;99078.28;;;-0.80;63.74
48622;BME280;34421;48.944;9.460;2023-03-04T05:52:33;99080.50;;;-0.75;64.41
48622;BME280;34421;48.944;9.460;2023-03-04T05:54:59;99082.13;;;-0.63;64.12
48622;BME280;34421;48.944;9.460;2023-03-04T05:57:24;99086.97;;;-0.47;63.91
48622;BME280;34421;48.944;9.460;2023-03-04T05:59:49;99086.69;;;-0.33;64.17
48622;BME280;34421;48.944;9.460;2023-03-04T06:02:14;99084.81;;;-0.21;63.10
48622;BME280;34421;48.944;9.460;2023-03-04T06:04:39;99084.91;;;-0.11;64.24
48622;BME280;34421;48.944;9.460;2023-03-04T06:07:05;99079.84;;;-0.03;63.63
48622;BME280;34421;48.944;9.460;2023-03-04T06:09:30;99080.53;;;-0.01;63.50
48622;BME280;34421;48.944;9.460;2023-03-04T06:11:55;99083.63;;;0.04;64.55
48622;BME280;34421;48.944;9.460;2023-03-04T06:14:20;99091.28;;;0.17;64.30
48622;BME280;34421;48.944;9.460;2023-03-04T06:16:45;99092.16;;;0.27;63.54
48622;BME280;34421;48.944;9.460;2023-03-04T06:19:11;99097.47;;;0.37;63.43
48622;BME280;34421;48.944;9.460;2023-03-04T06:21:36;99100.00;;;0.48;64.40
48622;BME280;34421;48.944;9.460;2023-03-04T06:30:07;99113.41;;;0.95;63.59
48622;BME280;34421;48.944;9.460;2023-03-04T06:32:32;99114.13;;;1.07;63.49
48622;BME280;34421;48.944;9.460;2023-03-04T06:34:58;99118.19;;;1.21;64.13
48622;BME280;34421;48.944;9.460;2023-03-04T06:37:23;99118.06;;;1.32;64.18
48622;BME280;34421;48.944;9.460;2023-03-04T06:39:48;99119.72;;;1.43;64.18
48622;BME280;34421;48.944;9.460;2023-03-04T06:42:13;99129.13;;;1.45;64.12
48622;BME280;34421;48.944;9.460;2023-03-04T06:44:39;99129.53;;;1.41;64.13
48622;BME280;34421;48.944;9.460;2023-03-04T06:47:04;99129.41;;;1.42;63.82
48622;BME280;34421;48.944;9.460;2023-03-04T06:49:29;99133.69;;;1.53;63.44
48622;BME280;34421;48.944;9.460;2023-03-04T06:51:54;99132.88;;;1.62;63.49
48622;BME280;34421;48.944;9.460;2023-03-04T06:54:19;99127.22;;;1.76;63.63
48622;BME280;34421;48.944;9.460;2023-03-04T06:56:45;99135.53;;;1.91;63.83
48622;BME280;34421;48.944;9.460;2023-03-04T06:59:10;99121.41;;;2.02;63.86
48622;BME280;34421;48.944;9.460;2023-03-04T07:01:35;99132.88;;;2.11;63.56
48622;BME280;34421;48.944;9.460;2023-03-04T07:04:02;99129.38;;;2.20;63.62
48622;BME280;34421;48.944;9.460;2023-03-04T07:06:27;99136.31;;;2.31;63.31
48622;BME280;34421;48.944;9.460;2023-03-04T07:08:53;99141.81;;;2.37;63.26
48622;BME280;34421;48.944;9.460;2023-03-04T07:11:18;99141.66;;;2.48;62.96
48622;BME280;34421;48.944;9.460;2023-03-04T07:13:44;99146.75;;;2.60;62.57
48622;BME280;34421;48.944;9.460;2023-03-04T07:16:10;99146.59;;;2.71;62.56
48622;BME280;34421;48.944;9.460;2023-03-04T07:18:36;99148.06;;;2.83;62.23
48622;BME280;34421;48.944;9.460;2023-03-04T07:21:01;99153.56;;;2.90;62.07
48622;BME280;34421;48.944;9.460;2023-03-04T07:23:27;99151.19;;;2.96;62.03
48622;BME280;34421;48.944;9.460;2023-03-04T07:25:52;99157.81;;;3.01;61.74
48622;BME280;34421;48.944;9.460;2023-03-04T07:28:17;99161.81;;;3.05;61.78
48622;BME280;34421;48.944;9.460;2023-03-04T07:30:43;99158.88;;;3.08;61.74
48622;BME280;34421;48.944;9.460;2023-03-04T07:33:08;99162.34;;;3.08;61.00
48622;BME280;34421;48.944;9.460;2023-03-04T07:35:33;99155.84;;;3.12;61.46
48622;BME280;34421;48.944;9.460;2023-03-04T07:37:59;99157.03;;;3.18;60.65
48622;BME280;34421;48.944;9.460;2023-03-04T07:40:24;99158.25;;;3.24;61.73
48622;BME280;34421;48.944;9.460;2023-03-04T07:42:50;99163.38;;;3.25;61.25
48622;BME280;34421;48.944;9.460;2023-03-04T07:45:16;99157.94;;;3.27;61.29
48622;BME280;34421;48.944;9.460;2023-03-04T07:47:41;99159.03;;;3.34;60.91
48622;BME280;34421;48.944;9.460;2023-03-04T07:50:06;99161.69;;;3.34;60.91
48622;BME280;34421;48.944;9.460;2023-03-04T07:52:31;99167.16;;;3.40;60.96
48622;BME280;34421;48.944;9.460;2023-03-04T07:54:57;99161.84;;;3.50;61.79
48622;BME280;34421;48.944;9.460;2023-03-04T07:57:22;99163.75;;;3.58;60.71
48622;BME280;34421;48.944;9.460;2023-03-04T07:59:47;99166.78;;;3.63;61.50
48622;BME280;34421;48.944;9.460;2023-03-04T08:02:12;99161.44;;;3.73;61.20
48622;BME280;34421;48.944;9.460;2023-03-04T08:04:39;99160.34;;;3.83;60.78
48622;BME280;34421;48.944;9.460;2023-03-04T08:07:04;99162.94;;;3.93;60.90
48622;BME280;34421;48.944;9.460;2023-03-04T08:09:29;99170.91;;;4.01;60.73
48622;BME280;34421;48.944;9.460;2023-03-04T08:11:55;99173.22;;;4.04;61.49
48622;BME280;34421;48.944;9.460;2023-03-04T08:14:20;99177.75;;;4.12;60.37
48622;BME280;34421;48.944;9.460;2023-03-04T08:16:45;99175.56;;;4.25;60.57
48622;BME280;34421;48.944;9.460;2023-03-04T08:19:11;99180.38;;;4.30;60.71
48622;BME280;34421;48.944;9.460;2023-03-04T08:21:36;99183.38;;;4.35;60.27
48622;BME280;34421;48.944;9.460;2023-03-04T08:24:01;99175.38;;;4.45;61.20
48622;BME280;34421;48.944;9.460;2023-03-04T08:26:33;99182.38;;;4.54;59.77
48622;BME280;34421;48.944;9.460;2023-03-04T08:28:59;99188.31;;;4.56;60.18
48622;BME280;34421;48.944;9.460;2023-03-04T08:31:25;99183.41;;;4.61;60.67
48622;BME280;34421;48.944;9.460;2023-03-04T08:33:50;99179.94;;;4.61;59.93
48622;BME280;34421;48.944;9.460;2023-03-04T08:36:16;99177.16;;;4.62;59.62
48622;BME280;34421;48.944;9.460;2023-03-04T08:38:42;99175.50;;;4.61;60.75
48622;BME280;34421;48.944;9.460;2023-03-04T08:41:07;99189.84;;;4.67;59.13
48622;BME280;34421;48.944;9.460;2023-03-04T08:43:32;99178.53;;;4.74;59.10
48622;BME280;34421;48.944;9.460;2023-03-04T08:45:58;99186.53;;;4.83;59.27
48622;BME280;34421;48.944;9.460;2023-03-04T08:48:24;99202.41;;;4.91;60.26
48622;BME280;34421;48.944;9.460;2023-03-04T08:50:49;99188.03;;;4.93;59.92
48622;BME280;34421;48.944;9.460;2023-03-04T08:53:15;99185.09;;;4.96;59.92
48622;BME280;34421;48.944;9.460;2023-03-04T08:55:40;99188.28;;;5.00;59.04
48622;BME280;34421;48.944;9.460;2023-03-04T08:58:06;99190.09;;;5.08;58.32
48622;BME280;34421;48.944;9.460;2023-03-04T09:00:32;99189.44;;;5.06;58.67
48622;BME280;34421;48.944;9.460;2023-03-04T09:02:58;99183.69;;;5.10;59.21
48622;BME280;34421;48.944;9.460;2023-03-04T09:05:23;99189.84;;;5.19;59.28
48622;BME280;34421;48.944;9.460;2023-03-04T09:07:48;99194.25;;;5.44;58.10
48622;BME280;34421;48.944;9.460;2023-03-04T09:10:13;99196.13;;;5.68;58.46
48622;BME280;34421;48.944;9.460;2023-03-04T09:12:38;99182.25;;;5.83;57.42
48622;BME280;34421;48.944;9.460;2023-03-04T09:15:04;99188.78;;;5.97;57.24
48622;BME280;34421;48.944;9.460;2023-03-04T09:17:30;99183.84;;;6.02;55.84
48622;BME280;34421;48.944;9.460;2023-03-04T09:19:55;99195.34;;;5.92;56.74
48622;BME280;34421;48.944;9.460;2023-03-04T09:22:21;99188.09;;;5.94;56.48
48622;BME280;34421;48.944;9.460;2023-03-04T09:24:46;99183.28;;;5.90;56.80
48622;BME280;34421;48.944;9.460;2023-03-04T09:27:11;99185.94;;;5.90;56.31
48622;BME280;34421;48.944;9.460;2023-03-04T09:29:36;99188.31;;;6.01;55.65
48622;BME280;34421;48.944;9.460;2023-03-04T09:32:01;99189.28;;;6.08;56.31
48622;BME280;34421;48.944;9.460;2023-03-04T09:34:27;99193.09;;;6.22;55.81
48622;BME280;34421;48.944;9.460;2023-03-04T09:36:52;99191.28;;;6.31;55.77
48622;BME280;34421;48.944;9.460;2023-03-04T09:39:17;99194.91;;;6.38;55.88
48622;BME280;34421;48.944;9.460;2023-03-04T09:41:46;99191.78;;;6.34;54.58
48622;BME280;34421;48.944;9.460;2023-03-04T09:46:38;99191.13;;;6.16;54.78
48622;BME280;34421;48.944;9.460;2023-03-04T09:49:05;99190.78;;;6.19;55.56
48622;BME280;34421;48.944;9.460;2023-03-04T09:56:26;99199.22;;;6.47;53.65
48622;BME280;34421;48.944;9.460;2023-03-04T10:01:25;99202.50;;;6.66;53.96
48622;BME280;34421;48.944;9.460;2023-03-04T10:06:20;99195.66;;;6.96;53.54
48622;BME280;34421;48.944;9.460;2023-03-04T10:08:57;99203.25;;;6.99;53.19
48622;BME280;34421;48.944;9.460;2023-03-04T10:11:29;99210.09;;;6.93;52.88
48622;BME280;34421;48.944;9.460;2023-03-04T10:14:02;99198.50;;;6.86;53.26
48622;BME280;34421;48.944;9.460;2023-03-04T10:16:30;99203.97;;;6.84;53.46
48622;BME280;34421;48.944;9.460;2023-03-04T10:21:25;99202.28;;;7.08;53.27
48622;BME280;34421;48.944;9.460;2023-03-04T10:23:54;99195.09;;;7.17;52.92
48622;BME280;34421;48.944;9.460;2023-03-04T10:26:19;99190.69;;;7.09;53.26
48622;BME280;34421;48.944;9.460;2023-03-04T10:28:45;99184.84;;;7.14;53.30
48622;BME280;34421;48.944;9.460;2023-03-04T10:31:14;99189.28;;;7.29;53.16
48622;BME280;34421;48.944;9.460;2023-03-04T10:33:41;99184.72;;;7.46;52.48
48622;BME280;34421;48.944;9.460;2023-03-04T10:38:52;99184.13;;;7.67;52.04
48622;BME280;34421;48.944;9.460;2023-03-04T10:41:19;99177.72;;;7.62;51.92
48622;BME280;34421;48.944;9.460;2023-03-04T10:43:59;99183.38;;;7.59;51.92
48622;BME280;34421;48.944;9.460;2023-03-04T10:46:25;99175.34;;;7.67;52.09
48622;BME280;34421;48.944;9.460;2023-03-04T10:48:51;99181.75;;;7.81;51.59
48622;BME280;34421;48.944;9.460;2023-03-04T10:53:42;99175.97;;;8.00;51.26
48622;BME280;34421;48.944;9.460;2023-03-04T10:58:52;99167.75;;;8.18;51.14
48622;BME280;34421;48.944;9.460;2023-03-04T11:01:17;99166.47;;;8.29;50.88
48622;BME280;34421;48.944;9.460;2023-03-04T11:03:49;99169.06;;;8.37;49.67
48622;BME280;34421;48.944;9.460;2023-03-04T11:06:16;99165.94;;;8.33;50.05
48622;BME280;34421;48.944;9.460;2023-03-04T11:08:42;99168.31;;;8.28;50.78
48622;BME280;34421;48.944;9.460;2023-03-04T11:11:29;99158.06;;;8.25;50.98
48622;BME280;34421;48.944;9.460;2023-03-04T11:13:59;99156.22;;;8.26;50.86
48622;BME280;34421;48.944;9.460;2023-03-04T11:16:26;99156.97;;;8.34;50.33
48622;BME280;34421;48.944;9.460;2023-03-04T11:18:53;99159.28;;;8.37;49.98
48622;BME280;34421;48.944;9.460;2023-03-04T11:21:20;99159.97;;;8.39;49.63
48622;BME280;34421;48.944;9.460;2023-03-04T11:23:50;99151.50;;;8.36;49.23
48622;BME280;34421;48.944;9.460;2023-03-04T11:26:39;99151.56;;;8.28;48.70
48622;BME280;34421;48.944;9.460;2023-03-04T11:31:35;99149.41;;;7.54;48.35
48622;BME280;34421;48.944;9.460;2023-03-04T11:34:07;99151.94;;;7.47;49.15
48622;BME280;34421;48.944;9.460;2023-03-04T11:44:49;99141.59;;;7.29;50.43
48622;BME280;34421;48.944;9.460;2023-03-04T12:00:15;99138.84;;;7.15;51.48
48622;BME280;34421;48.944;9.460;2023-03-04T12:08:22;99118.06;;;6.95;51.82
48622;BME280;34421;48.944;9.460;2023-03-04T12:16:30;99101.81;;;7.06;51.43
48622;BME280;34421;48.944;9.460;2023-03-04T12:25:04;99093.06;;;6.98;52.32
48622;BME280;34421;48.944;9.460;2023-03-04T12:27:19;99096.34;;;7.08;51.04
48622;BME280;34421;48.944;9.460;2023-03-04T12:45:12;99078.25;;;6.80;52.04
48622;BME280;34421;48.944;9.460;2023-03-04T12:52:57;99070.41;;;6.95;52.47
48622;BME280;34421;48.944;9.460;2023-03-04T12:55:29;99064.94;;;7.05;52.08
48622;BME280;34421;48.944;9.460;2023-03-04T12:57:56;99062.56;;;7.10;51.49
48622;BME280;34421;48.944;9.460;2023-03-04T13:03:10;99053.78;;;7.10;51.63
48622;BME280;34421;48.944;9.460;2023-03-04T13:05:43;99052.78;;;7.11;52.24
48622;BME280;34421;48.944;9.460;2023-03-04T13:10:35;99054.00;;;7.08;52.86
48622;BME280;34421;48.944;9.460;2023-03-04T13:13:01;99051.47;;;7.15;52.20
48622;BME280;34421;48.944;9.460;2023-03-04T13:17:55;99056.38;;;7.26;52.33
48622;BME280;34421;48.944;9.460;2023-03-04T13:38:30;99052.00;;;6.71;54.46
48622;BME280;34421;48.944;9.460;2023-03-04T13:51:21;99051.06;;;6.47;54.29
48622;BME280;34421;48.944;9.460;2023-03-04T13:54:32;99058.88;;;6.41;54.44
48622;BME280;34421;48.944;9.460;2023-03-04T13:56:42;99058.88;;;6.32;54.05
48622;BME280;34421;48.944;9.460;2023-03-04T13:59:12;99063.88;;;6.19;52.86
48622;BME280;34421;48.944;9.460;2023-03-04T14:06:40;99053.28;;;6.19;53.87
48622;BME280;34421;48.944;9.460;2023-03-04T14:09:11;99047.81;;;6.21;54.34
48622;BME280;34421;48.944;9.460;2023-03-04T14:11:38;99051.13;;;6.14;52.74
48622;BME280;34421;48.944;9.460;2023-03-04T14:14:07;99048.31;;;6.24;53.60
48622;BME280;34421;48.944;9.460;2023-03-04T14:16:37;99044.16;;;6.30;54.13
48622;BME280;34421;48.944;9.460;2023-03-04T14:19:04;99045.16;;;6.37;53.05
48622;BME280;34421;48.944;9.460;2023-03-04T14:21:30;99047.63;;;6.38;51.90
48622;BME280;34421;48.944;9.460;2023-03-04T14:24:06;99044.97;;;6.38;52.89
48622;BME280;34421;48.944;9.460;2023-03-04T14:26:33;99030.31;;;6.28;53.10
48622;BME280;34421;48.944;9.460;2023-03-04T14:28:58;99032.78;;;6.21;52.85
48622;BME280;34421;48.944;9.460;2023-03-04T14:31:26;99033.97;;;6.10;54.35
48622;BME280;34421;48.944;9.460;2023-03-04T14:33:54;99027.69;;;6.03;54.77
48622;BME280;34421;48.944;9.460;2023-03-04T14:36:23;99034.63;;;6.04;53.99
48622;BME280;34421;48.944;9.460;2023-03-04T14:38:53;99029.16;;;6.06;54.39
48622;BME280;34421;48.944;9.460;2023-03-04T14:41:32;99031.97;;;6.12;54.62
48622;BME280;34421;48.944;9.460;2023-03-04T14:46:23;99022.38;;;6.28;53.20
48622;BME280;34421;48.944;9.460;2023-03-04T14:48:52;99020.69;;;6.35;52.72
48622;BME280;34421;48.944;9.460;2023-03-04T14:51:28;99009.28;;;6.43;53.04
48622;BME280;34421;48.944;9.460;2023-03-04T14:53:54;99023.34;;;6.35;52.67
48622;BME280;34421;48.944;9.460;2023-03-04T14:56:25;99012.91;;;6.33;53.36
48622;BME280;34421;48.944;9.460;2023-03-04T14:58:53;99008.13;;;6.37;53.47
48622;BME280;34421;48.944;9.460;2023-03-04T15:04:00;99015.03;;;6.46;51.67
48622;BME280;34421;48.944;9.460;2023-03-04T15:06:31;99010.09;;;6.43;52.17
48622;BME280;34421;48.944;9.460;2023-03-04T15:09:01;99012.78;;;6.27;51.28
48622;BME280;34421;48.944;9.460;2023-03-04T15:11:32;99012.63;;;6.20;51.55
48622;BME280;34421;48.944;9.460;2023-03-04T15:14:15;99007.00;;;6.15;50.93
48622;BME280;34421;48.944;9.460;2023-03-04T15:16:54;99005.19;;;6.15;50.66
48622;BME280;34421;48.944;9.460;2023-03-04T15:19:24;99003.88;;;6.03;51.51
48622;BME280;34421;48.944;9.460;2023-03-04T15:21:50;99004.22;;;6.00;51.60
48622;BME280;34421;48.944;9.460;2023-03-04T15:24:15;99006.56;;;5.95;51.50
48622;BME280;34421;48.944;9.460;2023-03-04T15:26:41;99007.22;;;5.97;51.10